createdAt,value
2022-10-23T00:08:53.347Z,99551.59
2022-10-23T00:18:54.990Z,99548.59
2022-10-23T00:28:56.608Z,99533.78
2022-10-23T00:38:58.188Z,99525.84
2022-10-23T00:49:00.485Z,99512.69
2022-10-23T00:59:02.294Z,99508.06
2022-10-23T01:09:06.927Z,99495.47
2022-10-23T01:19:11.457Z,99493.81
2022-10-23T01:29:23.221Z,99480.09
2022-10-23T01:39:27.826Z,99473.78
2022-10-23T01:49:30.402Z,99472.69
2022-10-23T01:59:35.384Z,99481.22
2022-10-23T02:09:37.217Z,99485.19
2022-10-23T02:19:45.872Z,99473.09
2022-10-23T02:29:51.992Z,99480.09
2022-10-23T02:39:55.114Z,99481.47
2022-10-23T02:49:59.406Z,99472.50
2022-10-23T03:00:08.064Z,99466.22
2022-10-23T03:10:10.295Z,99471.66
2022-10-23T03:20:12.838Z,99462.69
2022-10-23T03:30:14.405Z,99461.88
2022-10-23T03:40:16.228Z,99459.34
2022-10-23T03:50:19.542Z,99455.75
2022-10-23T04:00:21.991Z,99453.91
2022-10-23T04:10:23.668Z,99453.94
2022-10-23T04:20:25.271Z,99460.19
2022-10-23T04:30:26.913Z,99445.44
2022-10-23T04:40:28.567Z,99455.50
2022-10-23T04:50:30.261Z,99456.63
2022-10-23T05:00:31.962Z,99454.19
2022-10-23T05:10:33.615Z,99454.97
2022-10-23T05:20:36.321Z,99460.72
2022-10-23T05:30:38.522Z,99460.88
2022-10-23T05:40:40.257Z,99450.16
2022-10-23T05:50:42.692Z,99451.34
2022-10-23T06:00:44.250Z,99456.44
2022-10-23T06:10:55.818Z,99459.16
2022-10-23T06:21:10.897Z,99466.13
2022-10-23T06:31:15.638Z,99471.59
2022-10-23T06:41:18.850Z,99464.34
2022-10-23T06:51:22.056Z,99462.31
2022-10-23T07:01:23.892Z,99466.06
2022-10-23T07:11:25.894Z,99473.28
2022-10-23T07:21:28.695Z,99477.34
2022-10-23T07:31:33.655Z,99472.97
2022-10-23T07:41:45.383Z,99463.63
2022-10-23T07:52:00.831Z,99458.00
2022-10-23T08:02:09.438Z,99456.66
2022-10-23T08:12:11.208Z,99465.38
2022-10-23T08:22:13.221Z,99467.16
2022-10-23T08:32:16.013Z,99476.72
2022-10-23T08:42:33.578Z,99481.72
2022-10-23T08:52:38.607Z,99491.91
2022-10-23T20:25:42.677Z,99831.88
2022-10-23T20:36:04.894Z,99835.53
2022-10-23T20:46:07.680Z,99839.50
2022-10-23T20:56:46.412Z,99839.31
2022-10-23T21:18:13.144Z,99812.28
2022-10-23T21:28:36.838Z,99816.16
2022-10-23T21:38:45.202Z,99840.59
2022-10-23T21:48:47.037Z,99840.34
2022-10-23T21:58:48.686Z,99849.66
2022-10-23T22:08:50.900Z,99841.25
2022-10-23T22:18:52.663Z,99853.22
2022-10-23T22:29:00.355Z,99851.53
2022-10-23T22:49:38.940Z,99850.06
2022-10-23T23:00:00.121Z,99869.91
2022-10-23T23:10:05.030Z,99867.22
2022-10-23T23:20:10.810Z,99884.97
2022-10-23T23:31:44.899Z,99885.38
2022-10-23T23:41:39.768Z,99890.66
2022-10-23T23:51:56.594Z,99868.19
